sensor_id;sensor_type;location;lat;lon;timestamp;P1;durP1;ratioP1;P2;durP2;ratioP2
34711;SDS011;20941;42.408;25.634;2023-02-15T00:01:06;32.80;;;13.98;;
34711;SDS011;20941;42.408;25.634;2023-02-15T00:03:35;33.47;;;14.95;;
34711;SDS011;20941;42.408;25.634;2023-02-15T00:06:01;28.33;;;12.48;;
34711;SDS011;20941;42.408;25.634;2023-02-15T00:08:27;28.65;;;13.27;;
34711;SDS011;20941;42.408;25.634;2023-02-15T00:10:52;31.13;;;13.27;;
34711;SDS011;20941;42.408;25.634;2023-02-15T00:13:18;31.65;;;14.20;;
34711;SDS011;20941;42.408;25.634;2023-02-15T00:15:44;32.90;;;15.07;;
34711;SDS011;20941;42.408;25.634;2023-02-15T00:18:09;31.52;;;15.00;;
34711;SDS011;20941;42.408;25.634;2023-02-15T00:20:35;32.28;;;14.10;;
34711;SDS011;20941;42.408;25.634;2023-02-15T00:23:00;27.98;;;12.60;;
34711;SDS011;20941;42.408;25.634;2023-02-15T00:25:26;29.70;;;13.20;;
34711;SDS011;20941;42.408;25.634;2023-02-15T00:27:51;31.50;;;13.82;;
34711;SDS011;20941;42.408;25.634;2023-02-15T00:30:17;30.00;;;13.70;;
34711;SDS011;20941;42.408;25.634;2023-02-15T00:32:43;30.42;;;12.73;;
34711;SDS011;20941;42.408;25.634;2023-02-15T00:35:08;31.05;;;15.07;;
34711;SDS011;20941;42.408;25.634;2023-02-15T00:37:35;28.67;;;14.77;;
34711;SDS011;20941;42.408;25.634;2023-02-15T00:40:01;36.38;;;17.00;;
34711;SDS011;20941;42.408;25.634;2023-02-15T00:42:26;38.90;;;17.92;;
34711;SDS011;20941;42.408;25.634;2023-02-15T00:44:52;39.22;;;20.70;;
34711;SDS011;20941;42.408;25.634;2023-02-15T00:47:18;37.08;;;21.55;;
34711;SDS011;20941;42.408;25.634;2023-02-15T00:49:43;40.53;;;21.58;;
34711;SDS011;20941;42.408;25.634;2023-02-15T00:52:09;36.38;;;19.95;;
34711;SDS011;20941;42.408;25.634;2023-02-15T00:54:34;40.53;;;21.10;;
34711;SDS011;20941;42.408;25.634;2023-02-15T00:57:00;38.05;;;21.63;;
34711;SDS011;20941;42.408;25.634;2023-02-15T00:59:26;32.10;;;17.73;;
34711;SDS011;20941;42.408;25.634;2023-02-15T01:01:51;39.53;;;16.98;;
34711;SDS011;20941;42.408;25.634;2023-02-15T01:04:17;36.58;;;17.23;;
34711;SDS011;20941;42.408;25.634;2023-02-15T01:06:42;38.08;;;17.05;;
34711;SDS011;20941;42.408;25.634;2023-02-15T01:09:08;36.75;;;16.23;;
34711;SDS011;20941;42.408;25.634;2023-02-15T01:11:34;26.73;;;12.38;;
34711;SDS011;20941;42.408;25.634;2023-02-15T01:13:59;26.55;;;11.38;;
34711;SDS011;20941;42.408;25.634;2023-02-15T01:16:25;31.58;;;12.85;;
34711;SDS011;20941;42.408;25.634;2023-02-15T01:18:52;30.92;;;13.77;;
34711;SDS011;20941;42.408;25.634;2023-02-15T01:21:20;33.13;;;14.80;;
34711;SDS011;20941;42.408;25.634;2023-02-15T01:23:48;32.65;;;14.18;;
34711;SDS011;20941;42.408;25.634;2023-02-15T01:26:14;32.67;;;14.40;;
34711;SDS011;20941;42.408;25.634;2023-02-15T01:28:40;34.67;;;15.10;;
34711;SDS011;20941;42.408;25.634;2023-02-15T01:31:09;32.33;;;14.40;;
34711;SDS011;20941;42.408;25.634;2023-02-15T01:33:42;33.47;;;14.73;;
34711;SDS011;20941;42.408;25.634;2023-02-15T01:36:08;33.13;;;14.98;;
34711;SDS011;20941;42.408;25.634;2023-02-15T01:38:34;29.65;;;14.50;;
34711;SDS011;20941;42.408;25.634;2023-02-15T01:41:00;33.28;;;14.75;;
34711;SDS011;20941;42.408;25.634;2023-02-15T01:43:45;33.90;;;13.48;;
34711;SDS011;20941;42.408;25.634;2023-02-15T01:46:16;27.90;;;12.02;;
34711;SDS011;20941;42.408;25.634;2023-02-15T01:48:44;30.30;;;11.95;;
34711;SDS011;20941;42.408;25.634;2023-02-15T01:51:16;32.55;;;12.65;;
34711;SDS011;20941;42.408;25.634;2023-02-15T01:53:54;26.70;;;12.18;;
34711;SDS011;20941;42.408;25.634;2023-02-15T01:56:25;28.08;;;12.40;;
34711;SDS011;20941;42.408;25.634;2023-02-15T01:58:55;23.48;;;11.57;;
34711;SDS011;20941;42.408;25.634;2023-02-15T02:01:24;29.02;;;11.60;;
34711;SDS011;20941;42.408;25.634;2023-02-15T02:08:53;26.20;;;11.65;;
34711;SDS011;20941;42.408;25.634;2023-02-15T02:11:19;25.02;;;11.38;;
34711;SDS011;20941;42.408;25.634;2023-02-15T02:13:45;23.45;;;10.93;;
34711;SDS011;20941;42.408;25.634;2023-02-15T02:31:07;23.33;;;11.50;;
34711;SDS011;20941;42.408;25.634;2023-02-15T02:36:25;30.65;;;13.45;;
34711;SDS011;20941;42.408;25.634;2023-02-15T02:50:16;29.38;;;12.57;;
34711;SDS011;20941;42.408;25.634;2023-02-15T02:52:50;28.48;;;12.45;;
34711;SDS011;20941;42.408;25.634;2023-02-15T02:55:23;28.38;;;12.88;;
34711;SDS011;20941;42.408;25.634;2023-02-15T03:00:53;29.15;;;13.68;;
34711;SDS011;20941;42.408;25.634;2023-02-15T03:03:43;34.42;;;14.32;;
34711;SDS011;20941;42.408;25.634;2023-02-15T03:06:35;32.92;;;14.07;;
34711;SDS011;20941;42.408;25.634;2023-02-15T03:09:14;32.33;;;15.02;;
34711;SDS011;20941;42.408;25.634;2023-02-15T03:12:12;37.20;;;13.57;;
34711;SDS011;20941;42.408;25.634;2023-02-15T03:17:10;28.00;;;13.00;;
34711;SDS011;20941;42.408;25.634;2023-02-15T03:19:38;35.65;;;14.95;;
34711;SDS011;20941;42.408;25.634;2023-02-15T03:22:10;40.28;;;15.25;;
34711;SDS011;20941;42.408;25.634;2023-02-15T03:24:51;40.95;;;15.70;;
34711;SDS011;20941;42.408;25.634;2023-02-15T03:27:23;38.42;;;15.80;;
34711;SDS011;20941;42.408;25.634;2023-02-15T03:29:53;42.60;;;16.83;;
34711;SDS011;20941;42.408;25.634;2023-02-15T03:32:22;40.63;;;15.57;;
34711;SDS011;20941;42.408;25.634;2023-02-15T03:34:51;41.30;;;16.33;;
34711;SDS011;20941;42.408;25.634;2023-02-15T03:37:26;34.70;;;16.70;;
34711;SDS011;20941;42.408;25.634;2023-02-15T03:40:14;39.10;;;16.17;;
34711;SDS011;20941;42.408;25.634;2023-02-15T03:43:10;39.33;;;16.05;;
34711;SDS011;20941;42.408;25.634;2023-02-15T03:45:42;49.93;;;17.73;;
34711;SDS011;20941;42.408;25.634;2023-02-15T03:48:25;43.55;;;17.40;;
34711;SDS011;20941;42.408;25.634;2023-02-15T03:51:00;40.58;;;17.17;;
34711;SDS011;20941;42.408;25.634;2023-02-15T03:53:48;43.42;;;16.55;;
34711;SDS011;20941;42.408;25.634;2023-02-15T03:56:15;37.72;;;16.40;;
34711;SDS011;20941;42.408;25.634;2023-02-15T03:58:41;38.97;;;14.52;;
34711;SDS011;20941;42.408;25.634;2023-02-15T04:04:36;39.78;;;15.43;;
34711;SDS011;20941;42.408;25.634;2023-02-15T04:07:05;41.72;;;16.08;;
34711;SDS011;20941;42.408;25.634;2023-02-15T04:09:32;47.28;;;18.15;;
34711;SDS011;20941;42.408;25.634;2023-02-15T04:12:16;43.55;;;17.88;;
34711;SDS011;20941;42.408;25.634;2023-02-15T04:14:42;43.55;;;16.63;;
34711;SDS011;20941;42.408;25.634;2023-02-15T04:17:26;39.10;;;14.93;;
34711;SDS011;20941;42.408;25.634;2023-02-15T04:19:51;51.03;;;18.80;;
34711;SDS011;20941;42.408;25.634;2023-02-15T04:22:36;49.95;;;18.75;;
34711;SDS011;20941;42.408;25.634;2023-02-15T04:25:20;49.60;;;18.60;;
34711;SDS011;20941;42.408;25.634;2023-02-15T04:27:50;41.20;;;15.43;;
34711;SDS011;20941;42.408;25.634;2023-02-15T04:30:17;42.72;;;17.35;;
34711;SDS011;20941;42.408;25.634;2023-02-15T04:32:44;43.75;;;17.25;;
34711;SDS011;20941;42.408;25.634;2023-02-15T06:16:50;49.80;;;22.02;;
34711;SDS011;20941;42.408;25.634;2023-02-15T06:19:34;50.17;;;19.10;;
34711;SDS011;20941;42.408;25.634;2023-02-15T06:22:00;52.53;;;20.02;;
34711;SDS011;20941;42.408;25.634;2023-02-15T06:24:27;41.78;;;16.95;;
34711;SDS011;20941;42.408;25.634;2023-02-15T06:26:53;51.25;;;18.33;;
34711;SDS011;20941;42.408;25.634;2023-02-15T06:29:19;31.58;;;13.00;;
34711;SDS011;20941;42.408;25.634;2023-02-15T06:31:44;43.50;;;16.02;;
34711;SDS011;20941;42.408;25.634;2023-02-15T06:34:10;41.63;;;16.55;;
34711;SDS011;20941;42.408;25.634;2023-02-15T06:36:36;60.42;;;23.60;;
34711;SDS011;20941;42.408;25.634;2023-02-15T06:39:03;42.88;;;16.60;;
34711;SDS011;20941;42.408;25.634;2023-02-15T06:41:29;39.58;;;16.60;;
34711;SDS011;20941;42.408;25.634;2023-02-15T06:43:55;40.95;;;16.98;;
34711;SDS011;20941;42.408;25.634;2023-02-15T06:46:21;37.28;;;16.63;;
34711;SDS011;20941;42.408;25.634;2023-02-15T06:48:46;41.17;;;17.02;;
34711;SDS011;20941;42.408;25.634;2023-02-15T06:51:12;84.10;;;22.98;;
34711;SDS011;20941;42.408;25.634;2023-02-15T09:12:38;35.40;;;14.20;;
34711;SDS011;20941;42.408;25.634;2023-02-15T09:15:03;29.15;;;12.75;;
34711;SDS011;20941;42.408;25.634;2023-02-15T09:17:29;47.55;;;14.80;;
34711;SDS011;20941;42.408;25.634;2023-02-15T09:19:55;28.48;;;13.02;;
34711;SDS011;20941;42.408;25.634;2023-02-15T09:22:20;37.25;;;13.93;;
34711;SDS011;20941;42.408;25.634;2023-02-15T09:24:46;28.58;;;12.68;;
34711;SDS011;20941;42.408;25.634;2023-02-15T09:27:11;30.33;;;14.77;;
34711;SDS011;20941;42.408;25.634;2023-02-15T09:29:37;28.60;;;14.05;;
34711;SDS011;20941;42.408;25.634;2023-02-15T09:32:02;29.65;;;12.73;;
34711;SDS011;20941;42.408;25.634;2023-02-15T09:34:29;34.22;;;13.57;;
34711;SDS011;20941;42.408;25.634;2023-02-15T09:36:55;34.47;;;13.40;;
34711;SDS011;20941;42.408;25.634;2023-02-15T09:39:22;29.02;;;12.57;;
34711;SDS011;20941;42.408;25.634;2023-02-15T09:57:48;24.30;;;12.70;;
34711;SDS011;20941;42.408;25.634;2023-02-15T10:03:22;30.35;;;13.35;;
34711;SDS011;20941;42.408;25.634;2023-02-15T10:06:05;33.10;;;14.30;;
34711;SDS011;20941;42.408;25.634;2023-02-15T10:11:23;35.58;;;14.05;;
34711;SDS011;20941;42.408;25.634;2023-02-15T10:22:21;29.58;;;14.00;;
34711;SDS011;20941;42.408;25.634;2023-02-15T10:27:43;26.83;;;12.25;;
34711;SDS011;20941;42.408;25.634;2023-02-15T10:30:17;32.70;;;14.95;;
34711;SDS011;20941;42.408;25.634;2023-02-15T10:33:00;26.92;;;12.50;;
34711;SDS011;20941;42.408;25.634;2023-02-15T10:38:28;36.70;;;13.60;;
34711;SDS011;20941;42.408;25.634;2023-02-15T10:41:09;35.38;;;13.68;;
34711;SDS011;20941;42.408;25.634;2023-02-15T11:08:23;33.42;;;14.23;;
34711;SDS011;20941;42.408;25.634;2023-02-15T11:10:53;28.45;;;14.13;;
34711;SDS011;20941;42.408;25.634;2023-02-15T11:13:27;18.52;;;9.15;;
34711;SDS011;20941;42.408;25.634;2023-02-15T11:16:11;24.92;;;12.20;;
34711;SDS011;20941;42.408;25.634;2023-02-15T11:18:42;26.85;;;13.48;;
34711;SDS011;20941;42.408;25.634;2023-02-15T11:23:46;32.08;;;15.18;;
34711;SDS011;20941;42.408;25.634;2023-02-15T11:26:17;29.92;;;14.45;;
34711;SDS011;20941;42.408;25.634;2023-02-15T11:31:26;33.40;;;14.32;;
34711;SDS011;20941;42.408;25.634;2023-02-15T11:33:59;29.60;;;12.38;;
34711;SDS011;20941;42.408;25.634;2023-02-15T11:36:37;38.28;;;15.60;;
34711;SDS011;20941;42.408;25.634;2023-02-15T11:39:09;31.42;;;14.70;;
34711;SDS011;20941;42.408;25.634;2023-02-15T11:41:40;30.70;;;14.02;;
34711;SDS011;20941;42.408;25.634;2023-02-15T11:44:14;28.42;;;14.05;;
34711;SDS011;20941;42.408;25.634;2023-02-15T11:46:44;28.67;;;14.10;;
34711;SDS011;20941;42.408;25.634;2023-02-15T11:51:59;40.38;;;14.77;;
34711;SDS011;20941;42.408;25.634;2023-02-15T11:54:29;31.08;;;13.48;;
34711;SDS011;20941;42.408;25.634;2023-02-15T11:57:01;27.90;;;13.77;;
34711;SDS011;20941;42.408;25.634;2023-02-15T11:59:40;29.70;;;15.05;;
34711;SDS011;20941;42.408;25.634;2023-02-15T12:02:19;29.27;;;14.75;;
34711;SDS011;20941;42.408;25.634;2023-02-15T12:05:20;29.90;;;14.77;;
34711;SDS011;20941;42.408;25.634;2023-02-15T12:07:55;30.27;;;14.25;;
34711;SDS011;20941;42.408;25.634;2023-02-15T12:10:33;25.80;;;14.50;;
34711;SDS011;20941;42.408;25.634;2023-02-15T12:15:35;31.85;;;14.95;;
34711;SDS011;20941;42.408;25.634;2023-02-15T12:18:01;33.78;;;14.48;;
34711;SDS011;20941;42.408;25.634;2023-02-15T12:20:31;30.13;;;14.73;;
34711;SDS011;20941;42.408;25.634;2023-02-15T12:23:02;32.63;;;14.10;;
34711;SDS011;20941;42.408;25.634;2023-02-15T12:28:23;29.40;;;12.98;;
34711;SDS011;20941;42.408;25.634;2023-02-15T12:30:58;27.65;;;13.70;;
34711;SDS011;20941;42.408;25.634;2023-02-15T12:33:27;36.50;;;14.38;;
34711;SDS011;20941;42.408;25.634;2023-02-15T12:36:03;27.80;;;13.00;;
34711;SDS011;20941;42.408;25.634;2023-02-15T12:38:37;31.48;;;14.68;;
34711;SDS011;20941;42.408;25.634;2023-02-15T12:41:04;30.17;;;13.70;;
34711;SDS011;20941;42.408;25.634;2023-02-15T12:43:46;54.97;;;16.60;;
34711;SDS011;20941;42.408;25.634;2023-02-15T12:46:13;35.83;;;14.50;;
34711;SDS011;20941;42.408;25.634;2023-02-15T12:48:45;33.20;;;14.80;;
34711;SDS011;20941;42.408;25.634;2023-02-15T12:51:15;31.83;;;15.13;;
34711;SDS011;20941;42.408;25.634;2023-02-15T12:53:41;28.92;;;13.88;;
34711;SDS011;20941;42.408;25.634;2023-02-15T12:56:08;29.52;;;14.88;;
34711;SDS011;20941;42.408;25.634;2023-02-15T12:58:35;32.17;;;14.50;;
34711;SDS011;20941;42.408;25.634;2023-02-15T13:03:34;27.88;;;12.73;;
34711;SDS011;20941;42.408;25.634;2023-02-15T13:06:00;45.80;;;15.70;;
34711;SDS011;20941;42.408;25.634;2023-02-15T13:08:31;32.75;;;13.07;;
34711;SDS011;20941;42.408;25.634;2023-02-15T13:11:10;31.35;;;14.93;;
34711;SDS011;20941;42.408;25.634;2023-02-15T13:13:50;24.88;;;13.40;;
34711;SDS011;20941;42.408;25.634;2023-02-15T13:16:19;28.45;;;13.82;;
34711;SDS011;20941;42.408;25.634;2023-02-15T13:18:55;30.77;;;14.18;;
34711;SDS011;20941;42.408;25.634;2023-02-15T13:21:31;24.95;;;13.45;;
34711;SDS011;20941;42.408;25.634;2023-02-15T13:24:02;37.63;;;15.25;;
34711;SDS011;20941;42.408;25.634;2023-02-15T13:26:35;27.38;;;13.65;;
34711;SDS011;20941;42.408;25.634;2023-02-15T13:34:52;27.00;;;13.13;;
34711;SDS011;20941;42.408;25.634;2023-02-15T13:37:37;34.67;;;15.45;;
34711;SDS011;20941;42.408;25.634;2023-02-15T13:53:56;33.65;;;15.25;;
34711;SDS011;20941;42.408;25.634;2023-02-15T13:56:40;34.47;;;15.23;;
34711;SDS011;20941;42.408;25.634;2023-02-15T14:04:42;40.33;;;15.25;;
34711;SDS011;20941;42.408;25.634;2023-02-15T14:26:49;33.03;;;13.70;;
34711;SDS011;20941;42.408;25.634;2023-02-15T14:31:59;29.95;;;14.70;;
34711;SDS011;20941;42.408;25.634;2023-02-15T14:34:43;40.72;;;17.10;;
34711;SDS011;20941;42.408;25.634;2023-02-15T14:37:13;35.20;;;15.73;;
34711;SDS011;20941;42.408;25.634;2023-02-15T14:40:24;41.38;;;16.88;;
34711;SDS011;20941;42.408;25.634;2023-02-15T14:43:12;39.13;;;15.43;;
34711;SDS011;20941;42.408;25.634;2023-02-15T14:46:03;40.28;;;16.83;;
34711;SDS011;20941;42.408;25.634;2023-02-15T14:51:31;46.33;;;18.25;;
34711;SDS011;20941;42.408;25.634;2023-02-15T14:56:46;52.72;;;18.90;;
34711;SDS011;20941;42.408;25.634;2023-02-15T15:02:20;50.85;;;18.52;;
34711;SDS011;20941;42.408;25.634;2023-02-15T15:12:48;49.78;;;17.27;;
34711;SDS011;20941;42.408;25.634;2023-02-15T15:22:50;51.03;;;16.60;;
34711;SDS011;20941;42.408;25.634;2023-02-15T15:25:44;36.92;;;15.25;;
34711;SDS011;20941;42.408;25.634;2023-02-15T15:28:56;33.47;;;16.27;;
34711;SDS011;20941;42.408;25.634;2023-02-15T15:33:46;43.47;;;18.13;;
34711;SDS011;20941;42.408;25.634;2023-02-15T15:42:31;41.58;;;18.45;;
34711;SDS011;20941;42.408;25.634;2023-02-15T15:51:04;41.75;;;18.58;;
34711;SDS011;20941;42.408;25.634;2023-02-15T15:53:45;45.70;;;18.20;;
34711;SDS011;20941;42.408;25.634;2023-02-15T15:56:18;55.92;;;19.55;;
34711;SDS011;20941;42.408;25.634;2023-02-15T15:58:48;50.65;;;19.00;;
34711;SDS011;20941;42.408;25.634;2023-02-15T16:01:24;37.72;;;17.55;;
34711;SDS011;20941;42.408;25.634;2023-02-15T16:03:52;38.38;;;16.77;;
34711;SDS011;20941;42.408;25.634;2023-02-15T16:06:26;44.75;;;19.55;;
34711;SDS011;20941;42.408;25.634;2023-02-15T16:09:24;53.22;;;20.08;;
34711;SDS011;20941;42.408;25.634;2023-02-15T16:11:54;51.97;;;19.35;;
34711;SDS011;20941;42.408;25.634;2023-02-15T16:14:31;59.45;;;21.60;;
34711;SDS011;20941;42.408;25.634;2023-02-15T16:17:01;78.88;;;24.90;;
34711;SDS011;20941;42.408;25.634;2023-02-15T16:19:33;74.07;;;25.02;;
34711;SDS011;20941;42.408;25.634;2023-02-15T16:22:03;85.78;;;26.83;;
34711;SDS011;20941;42.408;25.634;2023-02-15T16:24:34;43.72;;;18.75;;
34711;SDS011;20941;42.408;25.634;2023-02-15T16:32:52;62.40;;;22.65;;
34711;SDS011;20941;42.408;25.634;2023-02-15T16:35:30;64.05;;;22.98;;
34711;SDS011;20941;42.408;25.634;2023-02-15T16:37:56;64.57;;;22.27;;
34711;SDS011;20941;42.408;25.634;2023-02-15T16:42:57;64.45;;;24.60;;
34711;SDS011;20941;42.408;25.634;2023-02-15T16:45:27;66.28;;;25.83;;
34711;SDS011;20941;42.408;25.634;2023-02-15T16:47:57;76.07;;;29.10;;
34711;SDS011;20941;42.408;25.634;2023-02-15T16:50:27;77.53;;;30.83;;
34711;SDS011;20941;42.408;25.634;2023-02-15T16:52:56;77.97;;;29.33;;
34711;SDS011;20941;42.408;25.634;2023-02-15T16:55:24;84.32;;;28.05;;
34711;SDS011;20941;42.408;25.634;2023-02-15T16:57:56;82.53;;;29.17;;
34711;SDS011;20941;42.408;25.634;2023-02-15T17:00:26;79.32;;;28.10;;
34711;SDS011;20941;42.408;25.634;2023-02-15T17:03:00;76.00;;;26.88;;
34711;SDS011;20941;42.408;25.634;2023-02-15T17:05:32;52.22;;;23.35;;
34711;SDS011;20941;42.408;25.634;2023-02-15T17:08:06;55.35;;;23.67;;
34711;SDS011;20941;42.408;25.634;2023-02-15T17:11:10;64.45;;;24.38;;
34711;SDS011;20941;42.408;25.634;2023-02-15T17:13:36;52.63;;;21.73;;
34711;SDS011;20941;42.408;25.634;2023-02-15T17:18:29;58.15;;;24.05;;
34711;SDS011;20941;42.408;25.634;2023-02-15T17:21:01;58.63;;;22.75;;
34711;SDS011;20941;42.408;25.634;2023-02-15T17:23:40;57.42;;;24.80;;
34711;SDS011;20941;42.408;25.634;2023-02-15T17:26:24;78.55;;;25.65;;
34711;SDS011;20941;42.408;25.634;2023-02-15T17:28:54;66.63;;;26.33;;
34711;SDS011;20941;42.408;25.634;2023-02-15T17:31:24;64.55;;;27.02;;
34711;SDS011;20941;42.408;25.634;2023-02-15T17:33:53;70.18;;;28.70;;
34711;SDS011;20941;42.408;25.634;2023-02-15T17:36:21;61.25;;;23.05;;
34711;SDS011;20941;42.408;25.634;2023-02-15T17:41:26;66.43;;;26.33;;
34711;SDS011;20941;42.408;25.634;2023-02-15T17:43:55;67.72;;;26.33;;
34711;SDS011;20941;42.408;25.634;2023-02-15T17:46:21;69.57;;;27.23;;
34711;SDS011;20941;42.408;25.634;2023-02-15T17:48:49;59.80;;;25.48;;
34711;SDS011;20941;42.408;25.634;2023-02-15T17:51:17;57.65;;;24.65;;
34711;SDS011;20941;42.408;25.634;2023-02-15T17:53:44;58.28;;;25.25;;
34711;SDS011;20941;42.408;25.634;2023-02-15T17:56:33;59.25;;;24.23;;
34711;SDS011;20941;42.408;25.634;2023-02-15T17:59:00;60.50;;;24.00;;
34711;SDS011;20941;42.408;25.634;2023-02-15T18:01:26;54.50;;;22.58;;
34711;SDS011;20941;42.408;25.634;2023-02-15T18:04:13;50.00;;;22.15;;
34711;SDS011;20941;42.408;25.634;2023-02-15T18:06:58;51.35;;;21.23;;
34711;SDS011;20941;42.408;25.634;2023-02-15T18:09:43;56.63;;;22.70;;
34711;SDS011;20941;42.408;25.634;2023-02-15T18:12:31;58.80;;;25.70;;
34711;SDS011;20941;42.408;25.634;2023-02-15T18:14:58;71.82;;;28.02;;
34711;SDS011;20941;42.408;25.634;2023-02-15T18:19:53;52.83;;;21.15;;
34711;SDS011;20941;42.408;25.634;2023-02-15T18:22:19;41.05;;;19.50;;
34711;SDS011;20941;42.408;25.634;2023-02-15T18:24:46;42.60;;;16.40;;
34711;SDS011;20941;42.408;25.634;2023-02-15T18:27:13;47.50;;;18.67;;
34711;SDS011;20941;42.408;25.634;2023-02-15T18:29:39;45.33;;;19.38;;
34711;SDS011;20941;42.408;25.634;2023-02-15T18:32:06;57.35;;;21.67;;
34711;SDS011;20941;42.408;25.634;2023-02-15T18:34:35;71.75;;;25.80;;
34711;SDS011;20941;42.408;25.634;2023-02-15T18:37:04;55.42;;;23.33;;
34711;SDS011;20941;42.408;25.634;2023-02-15T18:42:05;44.17;;;19.73;;
34711;SDS011;20941;42.408;25.634;2023-02-15T18:44:38;41.20;;;19.27;;
34711;SDS011;20941;42.408;25.634;2023-02-15T18:47:03;47.47;;;19.95;;
34711;SDS011;20941;42.408;25.634;2023-02-15T18:49:29;47.83;;;19.98;;
34711;SDS011;20941;42.408;25.634;2023-02-15T18:51:54;49.92;;;20.27;;
34711;SDS011;20941;42.408;25.634;2023-02-15T18:54:21;42.45;;;20.35;;
34711;SDS011;20941;42.408;25.634;2023-02-15T18:56:55;48.95;;;20.58;;
34711;SDS011;20941;42.408;25.634;2023-02-15T18:59:24;54.22;;;21.38;;
34711;SDS011;20941;42.408;25.634;2023-02-15T19:01:51;54.03;;;21.80;;
34711;SDS011;20941;42.408;25.634;2023-02-15T19:04:17;62.15;;;23.00;;
34711;SDS011;20941;42.408;25.634;2023-02-15T19:06:44;57.35;;;22.85;;
34711;SDS011;20941;42.408;25.634;2023-02-15T19:09:13;59.95;;;24.85;;
34711;SDS011;20941;42.408;25.634;2023-02-15T19:11:42;59.10;;;24.30;;
34711;SDS011;20941;42.408;25.634;2023-02-15T19:14:29;50.88;;;21.00;;
34711;SDS011;20941;42.408;25.634;2023-02-15T19:16:57;55.25;;;21.98;;
34711;SDS011;20941;42.408;25.634;2023-02-15T19:19:24;48.08;;;21.02;;
34711;SDS011;20941;42.408;25.634;2023-02-15T19:21:50;50.53;;;20.80;;
34711;SDS011;20941;42.408;25.634;2023-02-15T19:24:50;59.55;;;24.40;;
34711;SDS011;20941;42.408;25.634;2023-02-15T19:27:20;61.15;;;24.05;;
34711;SDS011;20941;42.408;25.634;2023-02-15T19:29:50;68.13;;;25.13;;
34711;SDS011;20941;42.408;25.634;2023-02-15T19:32:17;47.25;;;20.25;;
34711;SDS011;20941;42.408;25.634;2023-02-15T19:34:42;48.97;;;18.98;;
34711;SDS011;20941;42.408;25.634;2023-02-15T19:37:11;52.88;;;19.92;;
34711;SDS011;20941;42.408;25.634;2023-02-15T19:39:58;40.72;;;18.42;;
34711;SDS011;20941;42.408;25.634;2023-02-15T19:42:25;45.78;;;18.27;;
34711;SDS011;20941;42.408;25.634;2023-02-15T19:44:52;44.55;;;18.23;;
34711;SDS011;20941;42.408;25.634;2023-02-15T19:47:18;39.85;;;18.27;;
34711;SDS011;20941;42.408;25.634;2023-02-15T19:49:46;38.65;;;17.30;;
34711;SDS011;20941;42.408;25.634;2023-02-15T19:52:15;38.33;;;17.45;;
34711;SDS011;20941;42.408;25.634;2023-02-15T19:54:43;39.25;;;18.33;;
34711;SDS011;20941;42.408;25.634;2023-02-15T19:57:12;49.45;;;18.38;;
34711;SDS011;20941;42.408;25.634;2023-02-15T19:59:38;61.88;;;21.40;;
34711;SDS011;20941;42.408;25.634;2023-02-15T20:02:04;63.47;;;23.85;;
34711;SDS011;20941;42.408;25.634;2023-02-15T20:04:31;54.72;;;22.25;;
34711;SDS011;20941;42.408;25.634;2023-02-15T20:06:58;69.45;;;24.10;;
34711;SDS011;20941;42.408;25.634;2023-02-15T20:09:32;36.92;;;16.23;;
34711;SDS011;20941;42.408;25.634;2023-02-15T20:12:01;37.60;;;16.10;;
34711;SDS011;20941;42.408;25.634;2023-02-15T20:14:27;40.75;;;16.70;;
34711;SDS011;20941;42.408;25.634;2023-02-15T20:16:53;39.03;;;16.52;;
34711;SDS011;20941;42.408;25.634;2023-02-15T20:19:18;33.03;;;14.10;;
34711;SDS011;20941;42.408;25.634;2023-02-15T20:21:44;40.95;;;17.10;;
34711;SDS011;20941;42.408;25.634;2023-02-15T20:24:19;44.40;;;17.77;;
34711;SDS011;20941;42.408;25.634;2023-02-15T20:26:45;45.85;;;18.60;;
34711;SDS011;20941;42.408;25.634;2023-02-15T20:29:15;54.13;;;21.42;;
34711;SDS011;20941;42.408;25.634;2023-02-15T20:31:42;57.08;;;22.85;;
34711;SDS011;20941;42.408;25.634;2023-02-15T20:34:08;53.80;;;24.25;;
34711;SDS011;20941;42.408;25.634;2023-02-15T20:36:35;58.47;;;24.45;;
34711;SDS011;20941;42.408;25.634;2023-02-15T20:39:02;61.85;;;27.85;;
34711;SDS011;20941;42.408;25.634;2023-02-15T20:41:36;67.82;;;25.55;;
34711;SDS011;20941;42.408;25.634;2023-02-15T20:46:54;55.53;;;23.90;;
34711;SDS011;20941;42.408;25.634;2023-02-15T20:49:21;49.40;;;21.90;;
34711;SDS011;20941;42.408;25.634;2023-02-15T20:51:49;43.25;;;19.77;;
34711;SDS011;20941;42.408;25.634;2023-02-15T20:54:17;47.95;;;19.88;;
34711;SDS011;20941;42.408;25.634;2023-02-15T20:56:45;41.38;;;18.55;;
34711;SDS011;20941;42.408;25.634;2023-02-15T20:59:28;41.03;;;18.70;;
34711;SDS011;20941;42.408;25.634;2023-02-15T21:01:59;49.37;;;19.60;;
34711;SDS011;20941;42.408;25.634;2023-02-15T21:04:30;50.63;;;18.88;;
34711;SDS011;20941;42.408;25.634;2023-02-15T21:06:59;47.20;;;18.92;;
34711;SDS011;20941;42.408;25.634;2023-02-15T21:09:25;43.53;;;18.33;;
34711;SDS011;20941;42.408;25.634;2023-02-15T21:11:52;39.78;;;18.15;;
34711;SDS011;20941;42.408;25.634;2023-02-15T21:14:20;46.65;;;17.88;;
34711;SDS011;20941;42.408;25.634;2023-02-15T21:16:48;37.03;;;16.13;;
34711;SDS011;20941;42.408;25.634;2023-02-15T21:19:15;35.47;;;15.68;;
34711;SDS011;20941;42.408;25.634;2023-02-15T21:21:43;43.28;;;16.92;;
34711;SDS011;20941;42.408;25.634;2023-02-15T21:24:18;44.28;;;18.45;;
34711;SDS011;20941;42.408;25.634;2023-02-15T21:26:47;42.92;;;18.15;;
34711;SDS011;20941;42.408;25.634;2023-02-15T21:29:13;50.42;;;20.08;;
34711;SDS011;20941;42.408;25.634;2023-02-15T21:31:41;39.80;;;16.63;;
34711;SDS011;20941;42.408;25.634;2023-02-15T21:34:07;38.40;;;17.35;;
34711;SDS011;20941;42.408;25.634;2023-02-15T21:36:32;36.58;;;15.38;;
34711;SDS011;20941;42.408;25.634;2023-02-15T21:38:58;33.65;;;14.70;;
34711;SDS011;20941;42.408;25.634;2023-02-15T21:41:24;34.78;;;15.80;;
34711;SDS011;20941;42.408;25.634;2023-02-15T21:44:20;36.78;;;15.98;;
34711;SDS011;20941;42.408;25.634;2023-02-15T21:47:28;37.53;;;16.13;;
34711;SDS011;20941;42.408;25.634;2023-02-15T21:50:13;40.00;;;14.93;;
34711;SDS011;20941;42.408;25.634;2023-02-15T21:52:59;35.33;;;14.70;;
34711;SDS011;20941;42.408;25.634;2023-02-15T21:55:26;34.97;;;14.85;;
34711;SDS011;20941;42.408;25.634;2023-02-15T21:57:51;41.05;;;15.75;;
34711;SDS011;20941;42.408;25.634;2023-02-15T22:00:18;39.15;;;16.02;;
34711;SDS011;20941;42.408;25.634;2023-02-15T22:02:46;36.90;;;16.15;;
34711;SDS011;20941;42.408;25.634;2023-02-15T22:05:16;36.63;;;14.60;;
34711;SDS011;20941;42.408;25.634;2023-02-15T22:07:45;38.22;;;15.27;;
34711;SDS011;20941;42.408;25.634;2023-02-15T22:10:11;34.70;;;15.07;;
34711;SDS011;20941;42.408;25.634;2023-02-15T22:12:37;30.92;;;14.55;;
34711;SDS011;20941;42.408;25.634;2023-02-15T22:15:05;32.90;;;14.00;;
34711;SDS011;20941;42.408;25.634;2023-02-15T22:17:31;35.55;;;13.18;;
34711;SDS011;20941;42.408;25.634;2023-02-15T22:19:58;32.72;;;13.98;;